Portada
METAR-TAF:

METAR-TAF

Aeropuertos :

Aeropuerto de Zagreb-Franjo Tuđman

Zagreb, Croacia

latitud: 45-44N, longitud: 016-04E, altitud: 106 m

Observación

El informe se hizo hace 44 minutos, a las 20:30 UTC
Viento 2 kt con dirección variable
Temperatura 10°C
Humedad 87%
Presión 1028 hPa
Visibilidad 10 km o más
sin nubes por debajo de 1500 m y sin presencia de cumulonimbus.

METAR: LDZA 132030Z VRB02KT CAVOK 10/08 Q1028 BECMG 05007KT

Hora: 22:14 (21:14 UTC)

Pronóstico

El informe se hizo hace 27 minutos, a las 20:47 UTC
Pronóstico válido del 13 a las 20 UTC al 14 a las 18 UTC
Viento 2 kt con dirección variable
Visibilidad 10 km o más
sin nubes por debajo de 1500 m y sin presencia de cumulonimbus.
Temporalmente
del 13 a las 21 UTC al 14 a las 01 UTC
Viento 8 kt del noreste

TAF: LDZA 132047Z 1320/1418 VRB02KT CAVOK TX14/1412Z TN07/1405Z TEMPO 1321/1401 05008KT

Observaciones y pronósticos meteorológicos de más de 4000 aeropuertos (mensajes METAR y TAF).

Los puntos amarillos y rojos representan las estaciones disponibles.

Ponga el ratón en el punto deseado para ver el nombre de la estación.

Haga clic para ver las observaciones y los pronósticos meteorológicos.

Para cambiar el mapa : haga clic en los botones verdes con una cruz de color negro para hacer un zoom, en el botón verde con un guión para alejar o en las flechas verdes para mapas adyacentes.


METAR-TAF: